createdAt,value
2023-02-01T00:01:24.170Z,102325.63
2023-02-01T00:03:52.517Z,102330.03
2023-02-01T00:06:22.461Z,102332.03
2023-02-01T00:08:50.637Z,102318.00
2023-02-01T00:11:19.102Z,102306.88
2023-02-01T00:13:47.273Z,102308.66
2023-02-01T00:16:18.449Z,102316.53
2023-02-01T00:18:47.358Z,102314.75
2023-02-01T00:21:17.216Z,102315.78
2023-02-01T00:23:47.130Z,102315.78
2023-02-01T00:26:18.575Z,102313.16
2023-02-01T00:28:46.700Z,102304.34
2023-02-01T00:31:16.103Z,102314.50
2023-02-01T00:33:44.512Z,102309.25
2023-02-01T00:36:13.236Z,102317.38
2023-02-01T00:38:41.979Z,102323.34
2023-02-01T00:41:14.604Z,102318.22
2023-02-01T00:43:43.278Z,102303.31
2023-02-01T00:46:12.206Z,102301.72
2023-02-01T00:48:40.531Z,102325.13
2023-02-01T00:51:10.545Z,102323.25
2023-02-01T00:53:39.460Z,102328.25
2023-02-01T00:56:08.525Z,102331.81
2023-02-01T00:58:39.163Z,102328.03
2023-02-01T01:01:09.234Z,102321.13
2023-02-01T01:03:38.995Z,102344.00
2023-02-01T01:06:10.328Z,102335.28
2023-02-01T01:08:39.545Z,102326.13
2023-02-01T01:11:10.022Z,102331.16
2023-02-01T01:13:39.745Z,102329.19
2023-02-01T01:16:09.427Z,102319.72
2023-02-01T01:18:37.680Z,102315.63
2023-02-01T01:21:07.815Z,102325.94
2023-02-01T01:23:37.032Z,102327.72
2023-02-01T01:26:08.241Z,102334.75
2023-02-01T01:28:36.603Z,102329.59
2023-02-01T01:31:06.443Z,102333.91
2023-02-01T01:33:34.704Z,102341.03
2023-02-01T01:36:02.829Z,102325.31
2023-02-01T01:38:31.091Z,102332.47
2023-02-01T01:40:59.109Z,102316.81
2023-02-01T01:43:27.416Z,102321.13
2023-02-01T01:45:55.567Z,102314.81
2023-02-01T01:48:30.332Z,102320.78
2023-02-01T01:51:01.761Z,102307.34
2023-02-01T01:53:32.801Z,102297.78
2023-02-01T01:56:02.643Z,102300.19
2023-02-01T01:58:34.325Z,102297.06
2023-02-01T02:01:02.484Z,102294.56
2023-02-01T02:03:36.877Z,102282.38
2023-02-01T02:06:08.977Z,102284.28
2023-02-01T02:08:37.039Z,102278.31
2023-02-01T02:11:05.301Z,102280.94
2023-02-01T02:13:36.254Z,102270.44
2023-02-01T02:16:49.525Z,102283.66
2023-02-01T02:19:55.966Z,102276.03
2023-02-01T02:22:47.715Z,102273.16
2023-02-01T02:25:24.113Z,102273.91
2023-02-01T02:28:02.663Z,102273.16
2023-02-01T02:30:48.290Z,102265.28
2023-02-01T02:33:50.907Z,102269.69
2023-02-01T02:36:31.454Z,102262.78
2023-02-01T02:39:09.646Z,102262.66
2023-02-01T02:42:06.980Z,102262.91
2023-02-01T02:44:59.553Z,102265.41
2023-02-01T02:47:35.065Z,102264.56
2023-02-01T02:50:37.047Z,102273.91
2023-02-01T02:53:29.311Z,102285.13
2023-02-01T02:56:16.666Z,102260.78
2023-02-01T02:59:04.073Z,102257.00
2023-02-01T03:01:50.389Z,102256.25
2023-02-01T03:04:21.145Z,102259.09
2023-02-01T03:06:50.655Z,102247.75
2023-02-01T03:09:24.903Z,102251.13
2023-02-01T03:12:19.153Z,102258.38
2023-02-01T03:14:51.712Z,102250.00
2023-02-01T03:17:28.354Z,102236.06
2023-02-01T03:20:00.305Z,102236.06
2023-02-01T03:22:32.824Z,102252.84
2023-02-01T03:25:04.955Z,102249.25
2023-02-01T03:27:36.651Z,102248.53
2023-02-01T03:30:11.827Z,102258.09
2023-02-01T03:35:46.966Z,102237.00
2023-02-01T03:38:22.527Z,102251.78
2023-02-01T03:40:56.392Z,102241.38
2023-02-01T03:43:27.571Z,102232.59
2023-02-01T03:46:01.900Z,102237.09
2023-02-01T03:48:32.179Z,102244.97
2023-02-01T03:51:06.660Z,102236.25
2023-02-01T03:53:38.453Z,102234.47
2023-02-01T03:56:08.383Z,102217.28
2023-02-01T03:58:36.620Z,102214.44
2023-02-01T04:01:04.828Z,102201.34
2023-02-01T04:03:33.294Z,102202.16
2023-02-01T04:06:02.856Z,102192.63
2023-02-01T04:08:31.563Z,102200.28
2023-02-01T04:10:59.585Z,102180.34
2023-02-01T04:13:27.661Z,102184.44
2023-02-01T04:15:55.701Z,102172.28
2023-02-01T04:18:24.005Z,102172.03
2023-02-01T04:20:52.546Z,102178.09
2023-02-01T04:23:22.728Z,102177.28
2023-02-01T04:25:50.931Z,102162.50
2023-02-01T04:28:19.062Z,102168.56
2023-02-01T04:30:48.361Z,102176.44
2023-02-01T04:33:16.543Z,102164.06
2023-02-01T04:35:44.937Z,102174.66
2023-02-01T04:38:13.243Z,102168.34
2023-02-01T04:40:42.816Z,102164.78
2023-02-01T04:43:11.021Z,102163.22
2023-02-01T04:45:39.151Z,102163.22
2023-02-01T04:48:07.801Z,102174.44
2023-02-01T04:50:36.073Z,102167.28
2023-02-01T04:53:04.542Z,102189.13
2023-02-01T04:55:32.938Z,102176.84
2023-02-01T04:58:03.804Z,102188.03
2023-02-01T05:00:33.759Z,102183.88
2023-02-01T05:03:02.068Z,102176.72
2023-02-01T05:05:31.052Z,102162.78
2023-02-01T05:07:59.148Z,102190.53
2023-02-01T05:10:27.497Z,102194.97
2023-02-01T05:13:13.024Z,102193.16
2023-02-01T05:15:42.649Z,102187.34
2023-02-01T05:18:13.670Z,102183.13
2023-02-01T05:20:41.818Z,102178.84
2023-02-01T05:23:09.977Z,102189.13
2023-02-01T05:25:38.095Z,102205.06
2023-02-01T05:28:06.584Z,102178.97
2023-02-01T05:30:36.388Z,102202.56
2023-02-01T05:33:06.296Z,102217.38
2023-02-01T05:35:34.381Z,102206.63
2023-02-01T05:38:02.503Z,102217.97
2023-02-01T05:40:30.654Z,102222.38
2023-02-01T05:42:58.761Z,102226.69
2023-02-01T05:45:26.857Z,102212.50
2023-02-01T05:47:57.862Z,102225.72
2023-02-01T05:50:27.717Z,102213.56
2023-02-01T05:52:55.782Z,102214.41
2023-02-01T05:55:23.952Z,102200.44
2023-02-01T05:57:52.102Z,102203.41
2023-02-01T06:00:22.462Z,102215.56
2023-02-01T06:02:50.765Z,102195.63
2023-02-01T06:05:18.884Z,102204.94
2023-02-01T06:07:49.321Z,102209.69
2023-02-01T06:10:18.390Z,102206.13
2023-02-01T06:12:46.936Z,102206.13
2023-02-01T06:15:16.731Z,102205.19
2023-02-01T06:17:46.084Z,102209.50
2023-02-01T06:20:16.339Z,102203.28
2023-02-01T06:22:44.503Z,102202.34
2023-02-01T06:25:14.388Z,102207.50
2023-02-01T06:27:42.544Z,102204.00
2023-02-01T06:30:11.882Z,102211.16
2023-02-01T06:32:40.462Z,102209.16
2023-02-01T06:35:12.328Z,102203.06
2023-02-01T06:37:40.465Z,102200.66
2023-02-01T06:40:10.061Z,102192.59
2023-02-01T06:42:39.649Z,102189.00
2023-02-01T06:45:08.946Z,102180.50
2023-02-01T06:47:37.021Z,102210.44
2023-02-01T06:50:05.806Z,102198.88
2023-02-01T06:52:34.040Z,102201.63
2023-02-01T06:55:02.261Z,102211.03
2023-02-01T06:57:31.931Z,102204.13
2023-02-01T07:00:01.597Z,102192.78
2023-02-01T07:02:30.691Z,102192.59
2023-02-01T07:04:58.775Z,102184.59
2023-02-01T07:07:26.903Z,102183.75
2023-02-01T07:09:58.255Z,102169.81
2023-02-01T07:12:26.231Z,102191.75
2023-02-01T07:14:54.324Z,102195.22
2023-02-01T07:17:23.825Z,102204.53
2023-02-01T07:19:52.428Z,102196.75
2023-02-01T07:22:20.625Z,102179.97
2023-02-01T07:24:48.775Z,102187.72
2023-02-01T07:27:16.993Z,102191.91
2023-02-01T07:29:45.199Z,102200.47
2023-02-01T07:32:19.155Z,102199.53
2023-02-01T07:34:49.082Z,102195.13
2023-02-01T07:37:18.041Z,102190.44
2023-02-01T07:39:48.517Z,102206.81
2023-02-01T07:42:16.635Z,102204.78
2023-02-01T07:44:44.749Z,102214.44
2023-02-01T07:47:12.913Z,102213.59
2023-02-01T07:49:41.092Z,102210.97
2023-02-01T07:52:12.282Z,102218.13
2023-02-01T07:54:40.484Z,102227.44
2023-02-01T07:57:09.854Z,102216.94
2023-02-01T07:59:58.113Z,102217.47
2023-02-01T08:02:26.446Z,102224.13
2023-02-01T08:04:54.625Z,102231.09
2023-02-01T08:07:24.392Z,102219.63
2023-02-01T08:09:52.479Z,102229.78
2023-02-01T08:12:20.698Z,102237.78
2023-02-01T08:14:48.832Z,102235.16
2023-02-01T08:17:16.992Z,102234.41
2023-02-01T08:19:45.112Z,102239.78
2023-02-01T08:22:13.235Z,102237.78
2023-02-01T08:24:42.821Z,102241.94
2023-02-01T08:27:10.888Z,102227.78
2023-02-01T08:29:39.086Z,102236.34
2023-02-01T08:32:07.445Z,102239.94
2023-02-01T08:34:36.003Z,102233.38
2023-02-01T08:37:04.524Z,102242.22
2023-02-01T08:39:32.602Z,102251.63
2023-02-01T08:42:19.579Z,102253.34
2023-02-01T08:44:48.281Z,102259.91
2023-02-01T08:47:16.731Z,102251.69
2023-02-01T08:49:44.830Z,102244.53
2023-02-01T08:52:15.980Z,102254.56
2023-02-01T08:54:44.307Z,102248.13
2023-02-01T08:57:14.286Z,102246.94
2023-02-01T08:59:42.451Z,102239.59
2023-02-01T09:02:14.153Z,102248.63
2023-02-01T09:04:42.432Z,102252.09
2023-02-01T09:07:10.830Z,102254.59
2023-02-01T09:09:39.472Z,102255.25
2023-02-01T09:12:07.907Z,102262.03
2023-02-01T09:14:37.605Z,102256.44
2023-02-01T09:17:06.441Z,102261.22
2023-02-01T09:19:34.736Z,102261.47
2023-02-01T09:22:03.079Z,102259.59
2023-02-01T09:24:31.180Z,102258.72
2023-02-01T09:26:59.434Z,102262.94
2023-02-01T09:29:27.611Z,102257.53
2023-02-01T09:32:04.088Z,102266.88
2023-02-01T09:34:33.483Z,102271.78
2023-02-01T09:37:01.621Z,102283.84
2023-02-01T09:39:31.199Z,102276.94
2023-02-01T09:42:16.756Z,102274.03
2023-02-01T09:45:07.611Z,102269.41
2023-02-01T09:47:38.388Z,102270.72
2023-02-01T09:50:15.762Z,102274.91
2023-02-01T09:52:47.922Z,102275.47
2023-02-01T09:55:20.977Z,102279.66
2023-02-01T09:57:57.221Z,102281.22
2023-02-01T10:00:29.710Z,102264.25
2023-02-01T10:02:59.868Z,102278.13
2023-02-01T10:05:53.664Z,102282.91
2023-02-01T10:08:28.454Z,102281.84
2023-02-01T10:11:05.661Z,102280.88
2023-02-01T10:13:52.204Z,102270.69
2023-02-01T10:16:32.602Z,102273.69
2023-02-01T10:19:24.139Z,102275.97
2023-02-01T10:21:57.270Z,102277.13
2023-02-01T10:24:39.729Z,102281.31
2023-02-01T10:27:15.704Z,102271.13
2023-02-01T10:29:47.029Z,102268.97
2023-02-01T10:32:17.761Z,102277.31
2023-02-01T10:34:53.416Z,102264.06
2023-02-01T10:37:32.314Z,102279.94
2023-02-01T10:40:03.915Z,102264.84
2023-02-01T10:42:31.948Z,102284.31
2023-02-01T10:45:03.475Z,102284.19
2023-02-01T10:47:31.262Z,102299.50
2023-02-01T10:50:16.700Z,102296.69
2023-02-01T10:52:50.509Z,102297.59
2023-02-01T10:55:36.125Z,102290.88
2023-02-01T10:58:06.637Z,102301.03
2023-02-01T11:00:44.835Z,102306.78
2023-02-01T11:03:34.175Z,102312.38
2023-02-01T11:06:05.087Z,102312.38
2023-02-01T11:08:33.207Z,102318.94
2023-02-01T11:11:02.924Z,102335.59
2023-02-01T11:13:34.253Z,102341.16
2023-02-01T11:16:05.588Z,102334.69
2023-02-01T11:18:37.095Z,102336.63
2023-02-01T11:21:09.159Z,102335.84
2023-02-01T11:23:43.101Z,102326.22
2023-02-01T11:26:15.178Z,102324.94
2023-02-01T11:28:52.792Z,102324.84
2023-02-01T11:31:22.057Z,102326.09
2023-02-01T11:33:55.175Z,102319.41
2023-02-01T11:36:29.159Z,102318.56
2023-02-01T11:39:12.360Z,102313.41
2023-02-01T11:41:45.140Z,102309.25
2023-02-01T11:44:25.128Z,102303.97
2023-02-01T11:46:53.307Z,102311.28
2023-02-01T11:49:25.528Z,102305.78
2023-02-01T11:52:11.846Z,102306.47
2023-02-01T11:54:57.229Z,102296.75
2023-02-01T11:57:39.113Z,102288.47
2023-02-01T12:00:46.120Z,102297.34
2023-02-01T12:03:41.997Z,102291.53
2023-02-01T12:06:20.340Z,102303.66
2023-02-01T12:09:13.610Z,102295.84
2023-02-01T12:11:54.033Z,102278.69
2023-02-01T12:14:44.634Z,102281.50
2023-02-01T12:17:47.477Z,102291.66
2023-02-01T12:20:34.428Z,102287.94
2023-02-01T12:23:15.977Z,102300.69
2023-02-01T12:26:05.432Z,102279.00
2023-02-01T12:28:44.335Z,102292.03
2023-02-01T12:31:28.629Z,102301.75
2023-02-01T12:34:15.115Z,102302.59
2023-02-01T12:36:49.086Z,102285.44
2023-02-01T12:39:25.887Z,102284.91
2023-02-01T12:42:04.368Z,102286.31
2023-02-01T12:44:42.963Z,102275.50
2023-02-01T12:47:20.986Z,102284.13
2023-02-01T12:49:55.736Z,102279.81
2023-02-01T12:52:34.495Z,102293.94
2023-02-01T12:55:10.651Z,102296.34
2023-02-01T12:57:45.387Z,102289.81
2023-02-01T13:00:24.603Z,102290.41
2023-02-01T13:02:58.108Z,102283.31
2023-02-01T13:05:33.017Z,102287.78
2023-02-01T13:08:05.013Z,102286.94
2023-02-01T13:10:37.454Z,102287.78
2023-02-01T13:13:14.948Z,102288.84
2023-02-01T13:15:48.584Z,102284.41
2023-02-01T13:18:21.762Z,102285.25
2023-02-01T13:20:55.727Z,102283.56
2023-02-01T13:23:33.932Z,102283.91
2023-02-01T13:26:02.624Z,102291.09
2023-02-01T13:28:45.061Z,102298.88
2023-02-01T13:31:32.440Z,102301.91
2023-02-01T13:34:34.522Z,102299.41
2023-02-01T13:37:17.115Z,102291.63
2023-02-01T13:40:04.767Z,102298.72
2023-02-01T13:42:35.615Z,102281.66
2023-02-01T13:45:08.287Z,102289.44
2023-02-01T13:47:42.813Z,102289.28
2023-02-01T13:50:21.791Z,102290.84
2023-02-01T13:52:55.471Z,102296.94
2023-02-01T13:55:34.580Z,102285.44
2023-02-01T13:58:13.588Z,102294.16
2023-02-01T14:00:45.124Z,102279.47
2023-02-01T14:03:19.106Z,102302.38
2023-02-01T14:06:37.293Z,102289.19
2023-02-01T14:09:32.672Z,102301.81
2023-02-01T14:12:20.784Z,102303.63
2023-02-01T14:14:51.167Z,102296.69
2023-02-01T14:17:38.826Z,102291.69
2023-02-01T14:21:00.283Z,102302.22
2023-02-01T14:23:33.865Z,102293.09
2023-02-01T14:26:14.980Z,102302.53
2023-02-01T14:28:48.783Z,102297.53
2023-02-01T14:31:33.681Z,102301.69
2023-02-01T14:34:13.904Z,102298.06
2023-02-01T14:36:49.523Z,102296.16
2023-02-01T14:39:28.897Z,102295.44
2023-02-01T14:42:02.570Z,102304.19
2023-02-01T14:44:38.765Z,102306.97
2023-02-01T14:47:33.138Z,102299.34
2023-02-01T14:50:30.042Z,102305.69
2023-02-01T14:53:13.872Z,102298.63
2023-02-01T14:55:44.687Z,102308.91
2023-02-01T14:58:21.076Z,102310.00
2023-02-01T15:00:52.389Z,102312.78
2023-02-01T15:03:53.846Z,102308.59
2023-02-01T15:06:31.335Z,102312.34
2023-02-01T15:09:02.196Z,102318.59
2023-02-01T15:11:30.423Z,102310.09
2023-02-01T15:14:00.907Z,102311.91
2023-02-01T15:16:29.166Z,102319.09
2023-02-01T15:19:11.091Z,102316.75
2023-02-01T15:21:49.076Z,102308.25
2023-02-01T15:24:22.549Z,102317.25
2023-02-01T15:26:51.301Z,102315.44
2023-02-01T15:29:20.637Z,102311.28
2023-02-01T15:31:52.169Z,102305.03
2023-02-01T15:34:21.838Z,102311.28
2023-02-01T15:37:02.974Z,102311.41
2023-02-01T15:39:32.803Z,102301.69
2023-02-01T15:42:04.274Z,102315.81
2023-02-01T15:44:41.305Z,102306.38
2023-02-01T15:47:17.353Z,102316.09
2023-02-01T15:49:49.278Z,102304.16
2023-02-01T15:52:33.088Z,102307.03
2023-02-01T15:55:03.736Z,102310.63
2023-02-01T15:57:35.311Z,102310.78
2023-02-01T16:00:05.982Z,102300.03
2023-02-01T16:02:38.611Z,102310.72
2023-02-01T16:05:08.502Z,102322.47
2023-02-01T16:07:39.011Z,102315.41
2023-02-01T16:10:27.338Z,102307.63
2023-02-01T16:12:59.745Z,102299.97
2023-02-01T16:15:30.504Z,102304.28
2023-02-01T16:17:58.764Z,102317.44
2023-02-01T16:20:26.919Z,102310.53
2023-02-01T16:22:56.411Z,102301.91
2023-02-01T16:25:27.999Z,102307.19
2023-02-01T16:27:56.456Z,102317.72
2023-02-01T16:30:25.437Z,102321.44
2023-02-01T16:32:56.053Z,102314.38
2023-02-01T16:35:27.558Z,102307.44
2023-02-01T16:37:56.928Z,102312.13
2023-02-01T16:40:25.046Z,102328.75
2023-02-01T16:42:56.198Z,102316.56
2023-02-01T16:45:24.813Z,102318.50
2023-02-01T16:47:57.315Z,102318.75
2023-02-01T16:50:28.684Z,102322.34
2023-02-01T16:52:58.417Z,102334.78
2023-02-01T16:55:27.115Z,102328.69
2023-02-01T16:57:55.453Z,102327.03
2023-02-01T17:00:25.830Z,102320.91
2023-02-01T17:02:55.100Z,102318.28
2023-02-01T17:05:23.630Z,102311.47
2023-02-01T17:07:52.535Z,102328.19
2023-02-01T17:10:33.243Z,102331.81
2023-02-01T17:13:02.277Z,102338.88
2023-02-01T17:15:36.936Z,102353.25
2023-02-01T17:18:05.487Z,102342.84
2023-02-01T17:20:34.202Z,102348.13
2023-02-01T17:23:02.813Z,102361.03
2023-02-01T17:25:33.256Z,102355.75
2023-02-01T17:28:01.853Z,102363.56
2023-02-01T17:30:35.047Z,102357.69
2023-02-01T17:33:13.227Z,102372.41
2023-02-01T17:35:49.272Z,102365.47
2023-02-01T17:38:17.590Z,102384.88
2023-02-01T17:40:47.161Z,102396.09
2023-02-01T17:43:16.525Z,102384.88
2023-02-01T17:45:51.872Z,102397.91
2023-02-01T17:48:21.151Z,102392.53
2023-02-01T17:50:52.745Z,102393.38
2023-02-01T17:53:22.354Z,102399.00
2023-02-01T17:55:52.406Z,102402.34
2023-02-01T17:58:21.240Z,102401.38
2023-02-01T18:00:50.646Z,102400.66
2023-02-01T18:03:24.139Z,102391.81
2023-02-01T18:05:53.812Z,102399.00
2023-02-01T18:08:23.322Z,102392.03
2023-02-01T18:10:59.906Z,102391.47
2023-02-01T18:13:28.343Z,102385.63
2023-02-01T18:15:57.003Z,102379.06
2023-02-01T18:18:25.197Z,102382.75
2023-02-01T18:20:53.420Z,102386.84
2023-02-01T18:23:23.830Z,102385.44
2023-02-01T18:25:54.227Z,102380.25
2023-02-01T18:28:22.717Z,102385.78
2023-02-01T18:30:52.584Z,102390.09
2023-02-01T18:33:22.239Z,102386.75
2023-02-01T18:35:51.100Z,102392.03
2023-02-01T18:38:19.368Z,102397.03
2023-02-01T18:40:51.366Z,102404.09
2023-02-01T18:43:21.292Z,102415.34
2023-02-01T18:45:49.879Z,102409.81
2023-02-01T18:48:22.230Z,102414.03
2023-02-01T18:50:52.176Z,102417.63
2023-02-01T18:53:24.059Z,102425.16
2023-02-01T18:55:53.835Z,102419.16
2023-02-01T18:58:26.583Z,102424.28
2023-02-01T19:00:55.422Z,102422.53
2023-02-01T19:03:26.827Z,102421.78
2023-02-01T19:05:59.377Z,102422.53
2023-02-01T19:08:27.640Z,102433.06
2023-02-01T19:10:56.173Z,102440.81
2023-02-01T19:13:28.391Z,102434.47
2023-02-01T19:15:58.203Z,102442.63
2023-02-01T19:18:26.471Z,102440.09
2023-02-01T19:20:55.173Z,102430.66
2023-02-01T19:23:23.673Z,102424.66
2023-02-01T19:25:52.335Z,102427.28
2023-02-01T19:28:20.538Z,102422.16
2023-02-01T19:30:50.233Z,102424.91
2023-02-01T19:33:18.539Z,102425.16
2023-02-01T19:35:48.611Z,102434.97
2023-02-01T19:38:16.701Z,102432.44
2023-02-01T19:40:44.891Z,102440.59
2023-02-01T19:43:13.108Z,102439.78
2023-02-01T19:45:43.611Z,102446.94
2023-02-01T19:48:15.870Z,102442.63
2023-02-01T19:50:44.044Z,102451.38
2023-02-01T19:53:12.601Z,102452.56
2023-02-01T19:55:45.043Z,102456.38
2023-02-01T19:58:13.235Z,102444.81
2023-02-01T20:00:40.686Z,102448.50
2023-02-01T20:03:10.068Z,102446.09
2023-02-01T20:05:39.693Z,102445.41
2023-02-01T20:08:07.866Z,102430.78
2023-02-01T20:10:36.085Z,102438.34
2023-02-01T20:13:04.639Z,102437.47
2023-02-01T20:15:32.740Z,102434.97
2023-02-01T20:18:00.760Z,102432.69
2023-02-01T20:20:29.385Z,102439.88
2023-02-01T20:22:58.814Z,102435.94
2023-02-01T20:25:26.984Z,102435.31
2023-02-01T20:27:56.105Z,102434.59
2023-02-01T20:30:24.347Z,102439.00
2023-02-01T20:32:53.475Z,102446.91
2023-02-01T20:35:22.709Z,102446.19
2023-02-01T20:37:51.930Z,102438.53
2023-02-01T20:40:21.645Z,102448.09
2023-02-01T20:42:49.855Z,102454.09
2023-02-01T20:45:17.973Z,102445.47
2023-02-01T20:47:50.041Z,102444.63
2023-02-01T20:50:18.699Z,102450.13
2023-02-01T20:52:46.902Z,102439.72
2023-02-01T20:55:15.173Z,102439.72
2023-02-01T20:57:44.766Z,102437.09
2023-02-01T21:00:14.135Z,102428.34
2023-02-01T21:02:42.298Z,102427.66
2023-02-01T21:05:11.199Z,102440.69
2023-02-01T21:07:39.516Z,102435.41
2023-02-01T21:10:08.912Z,102437.09
2023-02-01T21:12:37.233Z,102434.59
2023-02-01T21:15:07.849Z,102433.63
2023-02-01T21:17:39.419Z,102438.03
2023-02-01T21:20:09.765Z,102433.53
2023-02-01T21:22:37.887Z,102439.13
2023-02-01T21:25:07.257Z,102427.44
2023-02-01T21:27:36.352Z,102430.91
2023-02-01T21:30:07.239Z,102420.16
2023-02-01T21:32:35.624Z,102412.25
2023-02-01T21:35:03.865Z,102416.56
2023-02-01T21:37:32.201Z,102419.91
2023-02-01T21:40:00.308Z,102421.56
2023-02-01T21:42:28.689Z,102415.13
2023-02-01T21:44:58.444Z,102414.19
2023-02-01T21:47:27.969Z,102410.34
2023-02-01T21:49:56.113Z,102412.72
2023-02-01T21:52:24.615Z,102411.78
2023-02-01T21:54:59.587Z,102404.72
2023-02-01T21:57:28.828Z,102401.03
2023-02-01T21:59:58.877Z,102391.31
2023-02-01T22:02:29.333Z,102391.94
2023-02-01T22:04:58.686Z,102385.56
2023-02-01T22:07:26.798Z,102384.50
2023-02-01T22:09:54.982Z,102387.84
2023-02-01T22:12:23.334Z,102387.63
2023-02-01T22:14:51.461Z,102378.75
2023-02-01T22:17:19.984Z,102371.47
2023-02-01T22:19:49.420Z,102373.97
2023-02-01T22:22:17.548Z,102377.44
2023-02-01T22:24:45.696Z,102382.47
2023-02-01T22:27:14.744Z,102390.47
2023-02-01T22:29:44.085Z,102380.53
2023-02-01T22:32:13.980Z,102366.44
2023-02-01T22:34:42.262Z,102357.69
2023-02-01T22:37:12.297Z,102352.66
2023-02-01T22:39:41.035Z,102351.94
2023-02-01T22:42:09.173Z,102353.88
2023-02-01T22:44:37.377Z,102350.78
2023-02-01T22:47:05.600Z,102344.53
2023-02-01T22:49:33.639Z,102340.47
2023-02-01T22:52:01.844Z,102346.56
2023-02-01T22:54:31.488Z,102345.75
2023-02-01T22:57:00.312Z,102335.22
2023-02-01T22:59:29.175Z,102329.13
2023-02-01T23:01:57.436Z,102351.72
2023-02-01T23:04:25.818Z,102341.22
2023-02-01T23:06:54.452Z,102340.25
2023-02-01T23:09:25.453Z,102327.69
2023-02-01T23:11:55.909Z,102335.44
2023-02-01T23:14:24.596Z,102338.78
2023-02-01T23:16:52.782Z,102334.47
2023-02-01T23:19:21.549Z,102331.63
2023-02-01T23:21:50.257Z,102325.16
2023-02-01T23:24:18.718Z,102321.53
2023-02-01T23:26:47.005Z,102316.88
2023-02-01T23:29:19.776Z,102309.09
2023-02-01T23:31:48.055Z,102311.63
2023-02-01T23:34:16.401Z,102308.16
2023-02-01T23:36:44.623Z,102298.31
2023-02-01T23:39:12.775Z,102296.38
2023-02-01T23:41:40.858Z,102290.28
2023-02-01T23:44:09.218Z,102290.88
2023-02-01T23:46:41.555Z,102289.91
2023-02-01T23:49:10.808Z,102282.00
2023-02-01T23:51:39.190Z,102276.75
2023-02-01T23:54:08.181Z,102273.19
2023-02-01T23:56:38.139Z,102277.34
2023-02-01T23:59:08.091Z,102273.28
